createdAt,value
2022-08-05T00:02:07.616Z,10.02
2022-08-05T00:04:55.300Z,8.20
2022-08-05T00:08:00.014Z,15.30
2022-08-05T00:10:46.426Z,24.42
2022-08-05T00:13:39.478Z,28.95
2022-08-05T00:16:36.264Z,30.15
2022-08-05T00:19:33.746Z,21.88
2022-08-05T00:22:31.296Z,13.25
2022-08-05T00:25:16.593Z,6.78
2022-08-05T00:28:03.205Z,6.13
2022-08-05T00:30:52.123Z,6.00
2022-08-05T00:34:54.967Z,4.90
2022-08-05T00:37:10.483Z,4.50
2022-08-05T00:39:57.391Z,4.32
2022-08-05T00:42:48.231Z,4.43
2022-08-05T00:45:38.628Z,4.45
2022-08-05T00:48:31.411Z,4.20
2022-08-05T00:51:51.031Z,4.15
2022-08-05T00:54:22.222Z,5.00
2022-08-05T00:57:13.047Z,5.10
2022-08-05T00:59:58.542Z,5.00
2022-08-05T01:02:43.981Z,4.20
2022-08-05T01:05:29.323Z,4.40
2022-08-05T01:08:30.758Z,4.20
2022-08-05T01:11:37.016Z,5.40
2022-08-05T01:14:40.582Z,4.75
2022-08-05T01:17:47.163Z,5.47
2022-08-05T01:21:22.811Z,5.85
2022-08-05T01:24:36.038Z,7.05
2022-08-05T01:27:50.608Z,6.43
2022-08-05T01:30:53.551Z,6.43
2022-08-05T01:33:49.291Z,6.78
2022-08-05T01:36:47.092Z,7.13
2022-08-05T01:39:46.030Z,6.40
2022-08-05T01:42:34.659Z,6.68
2022-08-05T01:45:22.030Z,6.28
2022-08-05T01:48:10.303Z,6.20
2022-08-05T01:50:57.660Z,5.90
2022-08-05T01:53:57.161Z,6.18
2022-08-05T01:58:09.846Z,6.80
2022-08-05T01:59:52.613Z,6.03
2022-08-05T02:02:46.484Z,6.00
2022-08-05T02:05:40.558Z,5.35
2022-08-05T02:08:30.787Z,4.72
2022-08-05T02:11:23.696Z,5.88
2022-08-05T02:14:38.286Z,4.75
2022-08-05T02:18:33.037Z,4.90
2022-08-05T02:21:05.783Z,4.82
2022-08-05T02:24:07.013Z,4.70
2022-08-05T02:27:00.322Z,4.72
2022-08-05T02:30:00.086Z,4.85
2022-08-05T02:32:55.518Z,4.70
2022-08-05T02:35:49.129Z,4.97
2022-08-05T02:38:52.897Z,4.78
2022-08-05T02:41:57.836Z,5.13
2022-08-05T02:44:47.400Z,5.18
2022-08-05T02:47:36.505Z,4.88
2022-08-05T02:50:47.034Z,4.80
2022-08-05T02:53:39.406Z,4.45
2022-08-05T02:56:27.454Z,4.45
2022-08-05T02:59:14.771Z,4.22
2022-08-05T03:02:02.027Z,4.00
2022-08-05T03:04:53.224Z,4.20
2022-08-05T03:07:59.481Z,4.32
2022-08-05T03:11:53.288Z,4.15
2022-08-05T03:14:02.649Z,4.43
2022-08-05T03:16:48.731Z,4.28
2022-08-05T03:19:36.965Z,4.85
2022-08-05T03:22:31.901Z,4.35
2022-08-05T03:25:33.475Z,4.32
2022-08-05T03:28:25.502Z,4.13
2022-08-05T03:31:18.241Z,4.10
2022-08-05T03:34:17.998Z,4.20
2022-08-05T03:37:05.632Z,4.47
2022-08-05T03:40:01.699Z,4.07
2022-08-05T03:42:52.532Z,4.43
2022-08-05T03:45:57.884Z,4.22
2022-08-05T03:48:45.372Z,4.38
2022-08-05T03:52:48.882Z,4.25
2022-08-05T03:56:05.199Z,4.80
2022-08-05T03:58:17.827Z,4.50
2022-08-05T04:01:06.828Z,4.38
2022-08-05T04:04:09.040Z,4.72
2022-08-05T04:06:56.021Z,4.05
2022-08-05T04:09:53.159Z,4.25
2022-08-05T04:15:24.533Z,4.47
2022-08-05T04:18:12.734Z,4.63
2022-08-05T04:21:07.830Z,4.63
2022-08-05T04:24:06.733Z,4.35
2022-08-05T04:26:54.440Z,4.60
2022-08-05T04:29:43.139Z,4.40
2022-08-05T04:32:31.292Z,4.53
2022-08-05T04:35:19.831Z,4.53
2022-08-05T04:38:06.612Z,4.45
2022-08-05T04:40:52.232Z,4.47
2022-08-05T04:43:46.586Z,4.30
2022-08-05T04:46:33.728Z,4.30
2022-08-05T04:49:19.232Z,4.65
2022-08-05T04:52:10.263Z,4.40
2022-08-05T04:54:57.909Z,4.53
2022-08-05T04:57:47.716Z,4.60
2022-08-05T05:03:20.435Z,4.55
2022-08-05T05:06:39.418Z,4.00
2022-08-05T05:09:14.251Z,4.63
2022-08-05T05:12:03.385Z,5.22
2022-08-05T05:14:49.278Z,4.85
2022-08-05T05:17:56.988Z,4.25
2022-08-05T05:20:44.552Z,4.57
2022-08-05T05:23:39.000Z,4.07
2022-08-05T05:26:37.070Z,4.57
2022-08-05T05:30:04.651Z,4.97
2022-08-05T05:32:31.393Z,4.72
2022-08-05T05:35:20.018Z,4.93
2022-08-05T05:38:09.181Z,4.80
2022-08-05T05:40:58.288Z,5.28
2022-08-05T05:43:58.419Z,5.30
2022-08-05T05:46:45.829Z,3.90
2022-08-05T05:49:33.811Z,4.68
2022-08-05T05:52:25.468Z,4.55
2022-08-05T05:55:14.663Z,4.65
2022-08-05T05:58:02.001Z,5.30
2022-08-05T06:00:49.737Z,4.35
2022-08-05T06:03:53.649Z,4.55
2022-08-05T06:06:47.788Z,4.43
2022-08-05T06:09:52.701Z,4.70
2022-08-05T06:12:42.270Z,4.55
2022-08-05T06:16:30.696Z,4.55
2022-08-05T06:18:33.292Z,5.53
2022-08-05T06:21:24.496Z,4.40
2022-08-05T06:24:25.828Z,4.40
2022-08-05T06:28:09.469Z,4.07
2022-08-05T06:30:21.220Z,4.00
2022-08-05T06:33:09.873Z,3.80
2022-08-05T06:36:03.944Z,4.55
2022-08-05T06:38:55.294Z,4.47
2022-08-05T06:41:40.565Z,3.90
2022-08-05T06:44:27.120Z,4.05
2022-08-05T06:48:11.435Z,3.65
2022-08-05T06:50:18.023Z,3.80
2022-08-05T06:53:11.416Z,3.78
2022-08-05T06:55:59.678Z,3.33
2022-08-05T06:58:46.787Z,4.00
2022-08-05T07:01:32.936Z,3.97
2022-08-05T07:04:19.238Z,3.38
2022-08-05T07:07:08.087Z,3.30
2022-08-05T07:09:55.382Z,3.42
2022-08-05T07:13:02.641Z,3.80
2022-08-05T07:16:06.293Z,4.07
2022-08-05T07:18:57.569Z,3.13
2022-08-05T07:22:00.181Z,3.55
2022-08-05T07:24:52.680Z,3.35
2022-08-05T07:27:59.503Z,3.70
2022-08-05T07:30:44.486Z,3.85
2022-08-05T07:33:37.505Z,3.42
2022-08-05T07:36:23.500Z,4.78
2022-08-05T07:39:50.332Z,3.83
2022-08-05T07:42:16.261Z,3.75
2022-08-05T07:45:02.079Z,3.22
2022-08-05T07:47:48.328Z,3.80
2022-08-05T07:50:41.183Z,3.10
2022-08-05T07:53:36.936Z,3.47
2022-08-05T07:57:02.578Z,3.45
2022-08-05T07:59:40.990Z,3.58
2022-08-05T08:02:31.417Z,3.53
2022-08-05T08:05:33.690Z,3.65
2022-08-05T08:08:26.062Z,4.65
2022-08-05T08:11:13.780Z,3.45
2022-08-05T08:14:01.764Z,3.13
2022-08-05T08:16:51.262Z,3.35
2022-08-05T08:20:10.700Z,3.40
2022-08-05T08:22:54.294Z,3.47
2022-08-05T08:26:00.373Z,3.47
2022-08-05T08:28:59.120Z,3.97
2022-08-05T08:31:48.614Z,3.45
2022-08-05T08:34:34.623Z,3.28
2022-08-05T08:37:19.791Z,3.92
2022-08-05T08:40:13.390Z,3.05
2022-08-05T08:45:17.109Z,3.35
2022-08-05T08:46:06.714Z,2.83
2022-08-05T08:50:07.645Z,3.00
2022-08-05T08:52:32.080Z,2.80
2022-08-05T08:56:03.384Z,2.58
2022-08-05T08:58:49.639Z,2.72
2022-08-05T09:01:42.941Z,2.95
2022-08-05T09:04:58.224Z,2.90
2022-08-05T09:07:57.293Z,3.42
2022-08-05T09:10:47.206Z,3.60
2022-08-05T09:16:48.736Z,3.22
2022-08-05T09:19:36.290Z,3.35
2022-08-05T09:23:09.263Z,4.00
2022-08-05T09:26:15.922Z,2.88
2022-08-05T09:29:09.837Z,2.63
2022-08-05T09:32:42.706Z,3.10
2022-08-05T09:35:26.340Z,2.90
2022-08-05T09:38:18.001Z,2.70
2022-08-05T09:41:12.345Z,2.63
2022-08-05T09:44:01.747Z,2.90
2022-08-05T09:46:53.528Z,2.80
2022-08-05T09:50:04.881Z,2.53
2022-08-05T09:53:03.680Z,3.00
2022-08-05T09:55:59.555Z,3.00
2022-08-05T09:59:17.304Z,2.88
2022-08-05T10:02:02.995Z,2.53
2022-08-05T10:04:49.020Z,2.78
2022-08-05T10:10:58.759Z,2.90
2022-08-05T10:13:54.568Z,2.90
2022-08-05T10:16:52.274Z,2.50
2022-08-05T10:20:04.149Z,2.60
2022-08-05T10:22:51.268Z,3.22
2022-08-05T10:25:37.966Z,3.45
2022-08-05T10:28:29.708Z,2.53
2022-08-05T10:32:52.798Z,3.20
2022-08-05T10:34:30.080Z,3.20
2022-08-05T10:37:19.085Z,3.90
2022-08-05T10:40:43.457Z,3.90
2022-08-05T10:43:40.009Z,2.97
2022-08-05T10:46:45.353Z,2.58
2022-08-05T10:49:33.195Z,3.33
2022-08-05T10:52:49.481Z,3.28
2022-08-05T10:56:04.927Z,3.60
2022-08-05T10:58:56.553Z,3.10
2022-08-05T11:02:14.182Z,3.17
2022-08-05T11:05:18.197Z,3.00
2022-08-05T11:08:33.709Z,2.83
2022-08-05T11:11:44.439Z,2.92
2022-08-05T11:17:59.813Z,2.83
2022-08-05T11:20:53.342Z,3.00
2022-08-05T11:24:05.129Z,2.70
2022-08-05T11:26:43.346Z,2.78
2022-08-05T11:29:41.069Z,2.60
2022-08-05T11:32:35.495Z,3.22
2022-08-05T11:36:08.068Z,6.22
2022-08-05T11:38:57.739Z,3.20
2022-08-05T11:42:01.979Z,3.20
2022-08-05T11:44:58.314Z,3.33
2022-08-05T11:47:50.409Z,3.40
2022-08-05T11:50:48.067Z,3.13
2022-08-05T11:53:41.070Z,6.10
2022-08-05T11:56:52.275Z,3.65
2022-08-05T11:59:41.392Z,3.85
2022-08-05T12:02:40.195Z,4.78
2022-08-05T12:05:36.087Z,5.32
2022-08-05T12:08:32.949Z,3.13
2022-08-05T12:11:28.256Z,3.55
2022-08-05T12:14:36.463Z,4.05
2022-08-05T12:18:03.596Z,12.30
2022-08-05T12:20:48.737Z,4.60
2022-08-05T12:23:34.828Z,3.75
2022-08-05T12:26:36.695Z,2.92
2022-08-05T12:29:24.752Z,3.13
2022-08-05T12:32:10.114Z,3.97
2022-08-05T12:34:55.724Z,5.82
2022-08-05T12:37:42.794Z,3.20
2022-08-05T12:40:29.763Z,2.97
2022-08-05T12:43:20.557Z,2.92
2022-08-05T12:46:06.923Z,2.97
2022-08-05T12:49:14.402Z,2.85
2022-08-05T12:52:10.224Z,3.20
2022-08-05T12:54:57.619Z,3.88
2022-08-05T12:58:38.469Z,4.10
2022-08-05T13:02:00.105Z,3.13
2022-08-05T13:03:56.252Z,2.67
2022-08-05T13:06:44.836Z,3.05
2022-08-05T13:09:37.419Z,3.60
2022-08-05T13:12:28.423Z,2.83
2022-08-05T13:15:16.471Z,2.50
2022-08-05T13:18:10.330Z,2.40
2022-08-05T13:20:55.776Z,2.60
2022-08-05T13:23:50.607Z,2.25
2022-08-05T13:26:36.489Z,2.35
2022-08-05T13:29:37.822Z,2.47
2022-08-05T13:32:29.239Z,2.13
2022-08-05T13:38:30.838Z,2.58
2022-08-05T13:41:19.538Z,2.20
2022-08-05T13:44:10.033Z,2.80
2022-08-05T13:47:05.172Z,2.25
2022-08-05T13:50:01.066Z,2.67
2022-08-05T13:52:54.072Z,3.35
2022-08-05T13:55:50.195Z,2.45
2022-08-05T13:58:52.922Z,2.78
2022-08-05T14:01:46.488Z,2.70
2022-08-05T14:05:03.689Z,3.38
2022-08-05T14:08:00.328Z,3.50
2022-08-05T14:10:52.540Z,3.20
2022-08-05T14:13:48.128Z,3.97
2022-08-05T14:16:34.372Z,3.20
2022-08-05T14:19:20.416Z,3.33
2022-08-05T14:22:12.200Z,3.70
2022-08-05T14:24:58.067Z,3.30
2022-08-05T14:27:47.260Z,3.20
2022-08-05T14:30:33.216Z,3.33
2022-08-05T14:33:22.748Z,3.35
2022-08-05T14:36:08.621Z,3.13
2022-08-05T14:38:54.045Z,3.60
2022-08-05T14:41:42.878Z,3.45
2022-08-05T14:44:45.792Z,3.42
2022-08-05T14:48:05.259Z,3.63
2022-08-05T14:50:40.802Z,3.63
2022-08-05T14:53:26.565Z,3.70
2022-08-05T14:56:16.203Z,3.58
2022-08-05T14:59:08.276Z,3.88
2022-08-05T15:01:54.525Z,3.67
2022-08-05T15:04:47.927Z,4.40
2022-08-05T15:08:11.327Z,4.00
2022-08-05T15:10:43.249Z,3.15
2022-08-05T15:13:45.762Z,4.07
2022-08-05T15:16:32.266Z,4.07
2022-08-05T15:19:23.410Z,4.10
2022-08-05T15:22:09.353Z,3.85
2022-08-05T15:24:56.182Z,3.80
2022-08-05T15:27:42.900Z,3.65
2022-08-05T15:30:37.500Z,3.70
2022-08-05T15:33:56.488Z,4.15
2022-08-05T15:36:29.835Z,4.20
2022-08-05T15:41:03.936Z,3.72
2022-08-05T15:42:53.727Z,4.28
2022-08-05T15:45:38.825Z,4.32
2022-08-05T15:48:27.036Z,3.75
2022-08-05T15:51:12.817Z,3.28
2022-08-05T15:53:59.052Z,4.60
2022-08-05T15:56:46.162Z,3.83
2022-08-05T15:59:35.041Z,3.50
2022-08-05T16:02:25.514Z,3.33
2022-08-05T16:05:12.875Z,3.55
2022-08-05T16:07:58.673Z,3.88
2022-08-05T16:10:48.712Z,3.85
2022-08-05T16:13:35.101Z,3.92
2022-08-05T16:16:21.226Z,4.32
2022-08-05T16:19:25.895Z,3.80
2022-08-05T16:22:27.391Z,4.10
2022-08-05T16:25:18.952Z,3.90
2022-08-05T16:28:17.164Z,4.10
2022-08-05T16:31:03.599Z,4.00
2022-08-05T16:33:54.109Z,4.40
2022-08-05T16:36:43.478Z,4.30
2022-08-05T16:40:06.047Z,4.60
2022-08-05T16:42:36.213Z,5.18
2022-08-05T16:46:04.466Z,5.65
2022-08-05T16:48:35.068Z,5.30
2022-08-05T16:51:42.785Z,5.18
2022-08-05T16:54:58.507Z,4.60
2022-08-05T16:58:03.379Z,4.30
2022-08-05T17:00:54.240Z,4.15
2022-08-05T17:03:51.722Z,4.43
2022-08-05T17:06:37.159Z,4.63
2022-08-05T17:09:57.241Z,4.03
2022-08-05T17:12:51.614Z,3.20
2022-08-05T17:15:48.524Z,3.60
2022-08-05T17:18:36.793Z,3.60
2022-08-05T17:21:24.611Z,3.00
2022-08-05T17:24:30.168Z,2.92
2022-08-05T17:27:16.509Z,2.33
2022-08-05T17:30:12.151Z,2.30
2022-08-05T17:33:04.947Z,1.75
2022-08-05T17:38:58.679Z,1.40
2022-08-05T17:42:17.268Z,1.33
2022-08-05T17:44:54.721Z,1.20
2022-08-05T17:47:43.427Z,1.17
2022-08-05T17:50:30.515Z,1.20
2022-08-05T17:53:17.037Z,1.20
2022-08-05T17:56:06.658Z,1.60
2022-08-05T17:58:52.984Z,1.27
2022-08-05T18:05:16.672Z,1.90
2022-08-05T18:08:02.644Z,1.17
2022-08-05T18:10:48.911Z,1.20
2022-08-05T18:13:36.653Z,1.10
2022-08-05T18:16:29.168Z,1.08
2022-08-05T18:19:14.315Z,1.08
2022-08-05T18:22:08.226Z,0.90
2022-08-05T18:24:56.708Z,1.45
2022-08-05T18:27:41.935Z,1.02
2022-08-05T18:30:39.007Z,0.90
2022-08-05T18:33:25.373Z,1.40
2022-08-05T18:36:15.663Z,1.20
2022-08-05T18:39:01.995Z,1.00
2022-08-05T18:41:53.445Z,0.98
2022-08-05T18:44:49.208Z,0.75
2022-08-05T18:47:41.880Z,0.60
2022-08-05T18:50:48.601Z,0.80
2022-08-05T18:53:34.732Z,1.48
2022-08-05T18:56:28.800Z,1.00
2022-08-05T18:59:44.356Z,1.08
2022-08-05T19:02:27.747Z,1.25
2022-08-05T19:06:13.416Z,0.90
2022-08-05T19:08:19.892Z,1.20
2022-08-05T19:11:07.389Z,1.00
2022-08-05T19:14:01.820Z,1.10
2022-08-05T19:16:56.828Z,1.00
2022-08-05T19:19:47.065Z,1.30
2022-08-05T19:22:34.083Z,1.23
2022-08-05T19:25:29.820Z,0.90
2022-08-05T19:28:15.396Z,1.38
2022-08-05T19:31:01.066Z,1.38
2022-08-05T19:33:56.398Z,1.20
2022-08-05T19:36:42.563Z,1.20
2022-08-05T19:39:29.952Z,1.25
2022-08-05T19:42:17.824Z,1.55
2022-08-05T19:45:05.851Z,1.20
2022-08-05T19:47:51.410Z,1.50
2022-08-05T19:50:40.999Z,2.08
2022-08-05T19:54:04.653Z,1.42
2022-08-05T19:56:34.485Z,1.10
2022-08-05T19:59:54.773Z,1.80
2022-08-05T20:02:26.305Z,1.50
2022-08-05T20:05:16.514Z,1.77
2022-08-05T20:08:09.489Z,1.73
2022-08-05T20:10:55.284Z,1.80
2022-08-05T20:13:58.525Z,2.00
2022-08-05T20:16:46.858Z,1.35
2022-08-05T20:19:36.358Z,2.83
2022-08-05T20:22:27.675Z,1.83
2022-08-05T20:25:13.007Z,1.90
2022-08-05T20:27:58.701Z,1.42
2022-08-05T20:30:44.837Z,1.40
2022-08-05T20:33:30.987Z,1.35
2022-08-05T20:36:17.994Z,1.70
2022-08-05T20:39:03.934Z,1.63
2022-08-05T20:41:51.425Z,1.48
2022-08-05T20:44:37.794Z,1.50
2022-08-05T20:47:32.123Z,1.60
2022-08-05T20:50:17.733Z,1.52
2022-08-05T20:53:03.341Z,1.40
2022-08-05T20:55:55.148Z,2.15
2022-08-05T20:58:53.348Z,1.52
2022-08-05T21:01:39.126Z,1.40
2022-08-05T21:04:26.863Z,1.48
2022-08-05T21:07:12.384Z,1.40
2022-08-05T21:09:58.040Z,1.65
2022-08-05T21:12:58.060Z,1.83
2022-08-05T21:15:51.045Z,1.45
2022-08-05T21:18:36.442Z,1.73
2022-08-05T21:21:24.520Z,1.58
2022-08-05T21:24:09.920Z,1.20
2022-08-05T21:26:58.980Z,1.70
2022-08-05T21:29:48.408Z,1.70
2022-08-05T21:32:36.419Z,1.73
2022-08-05T21:35:29.997Z,1.80
2022-08-05T21:38:28.948Z,1.70
2022-08-05T21:41:14.775Z,2.17
2022-08-05T21:44:06.027Z,1.88
2022-08-05T21:46:51.228Z,2.35
2022-08-05T21:49:48.205Z,2.22
2022-08-05T21:52:47.220Z,1.70
2022-08-05T21:56:00.926Z,2.03
2022-08-05T21:58:42.102Z,1.90
2022-08-05T22:01:27.891Z,2.00
2022-08-05T22:04:25.428Z,2.22
2022-08-05T22:07:10.993Z,2.25
2022-08-05T22:09:57.214Z,1.90
2022-08-05T22:12:44.763Z,2.05
2022-08-05T22:16:01.748Z,2.10
2022-08-05T22:18:41.460Z,2.10
2022-08-05T22:21:34.864Z,2.25
2022-08-05T22:24:40.622Z,2.20
2022-08-05T22:28:11.309Z,2.03
2022-08-05T22:30:55.819Z,2.15
2022-08-05T22:33:58.407Z,2.00
2022-08-05T22:36:46.613Z,1.88
2022-08-05T22:39:34.513Z,2.38
2022-08-05T22:42:25.458Z,2.10
2022-08-05T22:45:12.372Z,2.25
2022-08-05T22:47:58.385Z,1.92
2022-08-05T22:50:46.084Z,2.10
2022-08-05T22:53:41.365Z,1.63
2022-08-05T22:56:30.721Z,1.85
2022-08-05T22:59:46.423Z,2.22
2022-08-05T23:02:29.690Z,1.50
2022-08-05T23:05:15.779Z,2.05
2022-08-05T23:08:00.891Z,1.75
2022-08-05T23:10:46.288Z,1.40
2022-08-05T23:13:31.597Z,1.10
2022-08-05T23:16:39.798Z,1.40
2022-08-05T23:19:29.218Z,1.05
2022-08-05T23:22:27.753Z,1.23
2022-08-05T23:25:13.239Z,0.85
2022-08-05T23:28:02.849Z,1.10
2022-08-05T23:30:53.196Z,1.27
2022-08-05T23:34:02.993Z,1.20
2022-08-05T23:36:44.685Z,1.60
2022-08-05T23:39:44.624Z,1.20
2022-08-05T23:42:37.274Z,1.10
2022-08-05T23:45:23.694Z,0.93
2022-08-05T23:48:09.333Z,1.33
2022-08-05T23:50:54.832Z,1.23
2022-08-05T23:53:46.776Z,1.27
2022-08-05T23:56:32.575Z,1.20
2022-08-05T23:59:19.611Z,1.35
